Time;durP1;ratioP1;P1;durP2;ratioP2;P2;SDS_P1;SDS_P2;PMS_P1;PMS_P2;Temp;Humidity;BMP_temperature;BMP_pressure;BME280_temperature;BME280_humidity;BME280_pressure;Samples;Min_cycle;Max_cycle;Signal;HPM_P1;HPM_P2
2021/04/19 00:00:43;;;;;;;15.52;9.80;;;4.20;99.90;;;;;;3601460;39;20105;-66
2021/04/19 00:03:10;;;;;;;19.88;10.23;;;4.20;99.90;;;;;;3601997;39;20112;-67
2021/04/19 00:05:36;;;;;;;23.75;11.52;;;4.20;99.90;;;;;;3601101;39;20487;-67
2021/04/19 00:08:03;;;;;;;23.92;12.10;;;4.10;99.90;;;;;;3604690;39;20037;-67
2021/04/19 00:10:29;;;;;;;20.00;10.57;;;4.10;99.90;;;;;;3603904;39;20086;-67
2021/04/19 00:12:54;;;;;;;18.08;9.95;;;3.90;99.90;;;;;;3601468;39;20440;-67
2021/04/19 00:15:21;;;;;;;19.35;9.77;;;3.80;99.90;;;;;;3603997;39;20050;-67
2021/04/19 00:17:48;;;;;;;25.05;11.85;;;3.80;99.90;;;;;;3605804;39;20079;-67
2021/04/19 00:20:14;;;;;;;24.73;11.13;;;3.70;99.90;;;;;;3600810;39;20098;-67
2021/04/19 00:22:40;;;;;;;27.33;13.90;;;3.70;99.90;;;;;;3602598;39;20039;-67
2021/04/19 00:25:07;;;;;;;31.00;13.23;;;3.60;99.90;;;;;;3603558;39;20056;-67
2021/04/19 00:27:33;;;;;;;32.40;12.80;;;3.60;99.90;;;;;;3604793;39;20203;-67
2021/04/19 00:29:59;;;;;;;28.48;13.10;;;3.60;99.90;;;;;;3602558;39;20106;-67
2021/04/19 00:32:25;;;;;;;31.65;13.32;;;3.60;99.90;;;;;;3603406;39;20421;-67
2021/04/19 00:34:51;;;;;;;42.72;14.77;;;3.70;99.90;;;;;;3604841;39;20864;-67
2021/04/19 00:37:17;;;;;;;36.50;14.40;;;3.70;99.90;;;;;;3603153;39;20272;-67
2021/04/19 00:39:43;;;;;;;40.53;14.38;;;3.70;99.90;;;;;;3604028;39;20046;-66
2021/04/19 00:42:09;;;;;;;30.83;13.60;;;3.70;99.90;;;;;;3606468;39;20031;-67
2021/04/19 00:44:35;;;;;;;30.23;12.93;;;3.70;99.90;;;;;;3604754;39;20035;-67
2021/04/19 00:47:02;;;;;;;27.48;12.15;;;3.70;99.90;;;;;;3603987;39;20027;-67
2021/04/19 00:49:28;;;;;;;23.88;11.07;;;3.60;99.90;;;;;;3603551;39;20035;-66
2021/04/19 00:51:56;;;;;;;56.90;13.43;;;3.60;99.90;;;;;;3602956;39;20043;-67
2021/04/19 00:54:24;;;;;;;23.63;11.73;;;3.60;99.90;;;;;;3604376;39;20123;-66
2021/04/19 00:56:51;;;;;;;22.95;11.18;;;3.60;99.90;;;;;;3602284;39;20023;-67
2021/04/19 00:59:17;;;;;;;22.35;11.40;;;3.50;99.90;;;;;;3599826;39;20753;-67
2021/04/19 01:01:44;;;;;;;24.60;12.23;;;3.40;99.90;;;;;;3600952;39;20032;-67
2021/04/19 01:04:10;;;;;;;20.80;11.13;;;3.30;99.90;;;;;;3603311;39;20132;-67
2021/04/19 01:06:35;;;;;;;23.42;11.40;;;3.30;99.90;;;;;;3605317;39;20540;-67
2021/04/19 01:09:01;;;;;;;22.42;11.32;;;3.30;99.90;;;;;;3602320;39;20998;-67
2021/04/19 01:11:28;;;;;;;25.17;11.57;;;3.20;99.90;;;;;;3598730;39;20036;-67
2021/04/19 01:13:54;;;;;;;20.67;11.15;;;3.20;99.90;;;;;;3604499;39;20067;-66
2021/04/19 01:16:21;;;;;;;22.00;11.57;;;3.20;99.90;;;;;;3604225;39;20050;-67
2021/04/19 01:18:46;;;;;;;20.05;10.52;;;3.10;99.90;;;;;;3604433;39;20109;-67
2021/04/19 01:21:12;;;;;;;21.52;11.02;;;3.10;99.90;;;;;;3602448;39;20514;-67
2021/04/19 01:23:38;;;;;;;22.85;11.50;;;3.10;99.90;;;;;;3603572;39;20031;-67
2021/04/19 01:26:04;;;;;;;21.83;10.48;;;3.10;99.90;;;;;;3604465;39;20027;-67
2021/04/19 01:28:32;;;;;;;25.77;12.23;;;3.10;99.90;;;;;;3604999;39;20143;-67
2021/04/19 01:30:58;;;;;;;64.63;12.10;;;3.00;99.90;;;;;;3602731;39;20043;-67
2021/04/19 01:33:24;;;;;;;63.03;11.68;;;3.10;99.90;;;;;;3599640;39;20028;-67
2021/04/19 01:35:51;;;;;;;38.80;11.65;;;3.10;99.90;;;;;;3599540;39;20058;-67
2021/04/19 01:38:22;;;;;;;39.92;11.65;;;3.10;99.90;;;;;;3601338;39;20050;-67
2021/04/19 01:40:49;;;;;;;18.75;10.18;;;3.10;99.90;;;;;;3605186;39;20054;-66
2021/04/19 01:43:18;;;;;;;19.27;10.98;;;3.10;99.90;;;;;;3592174;39;20047;-67
2021/04/19 01:45:59;;;;;;;21.83;10.73;;;3.00;99.90;;;;;;3604304;39;20047;-66
2021/04/19 01:48:26;;;;;;;22.33;11.13;;;3.00;99.90;;;;;;3604241;39;20039;-66
2021/04/19 01:50:54;;;;;;;17.90;9.57;;;3.00;99.90;;;;;;3604609;39;20782;-66
2021/04/19 01:53:21;;;;;;;17.67;9.82;;;3.10;99.90;;;;;;3602141;39;20039;-66
2021/04/19 01:55:47;;;;;;;17.83;10.15;;;3.20;99.90;;;;;;3602841;39;20030;-66
2021/04/19 01:58:19;;;;;;;23.70;11.50;;;3.30;99.90;;;;;;3603613;39;20038;-66
2021/04/19 02:00:53;;;;;;;22.33;10.90;;;3.30;99.90;;;;;;3601437;39;20036;-66
2021/04/19 02:03:33;;;;;;;20.33;10.93;;;3.40;99.90;;;;;;3600435;39;20128;-66
2021/04/19 02:06:12;;;;;;;20.38;10.27;;;3.50;99.90;;;;;;3607061;39;20031;-66
2021/04/19 02:08:50;;;;;;;20.95;10.73;;;3.50;99.90;;;;;;3598082;39;20055;-66
2021/04/19 02:11:38;;;;;;;19.67;10.88;;;3.60;99.90;;;;;;3604403;39;20054;-67
2021/04/19 02:14:42;;;;;;;20.13;10.55;;;3.60;99.90;;;;;;3602198;39;20055;-66
2021/04/19 02:17:49;;;;;;;18.48;10.85;;;3.60;99.90;;;;;;3599940;39;20764;-66
2021/04/19 02:20:46;;;;;;;17.25;10.25;;;3.60;99.90;;;;;;3602766;39;20050;-66
2021/04/19 02:23:35;;;;;;;17.30;9.52;;;3.60;99.90;;;;;;3602340;39;20349;-66
2021/04/19 02:26:14;;;;;;;17.83;10.10;;;3.60;99.90;;;;;;3599365;39;20035;-66
2021/04/19 02:29:12;;;;;;;17.35;10.27;;;3.70;99.90;;;;;;3594163;39;20039;-66
2021/04/19 02:31:43;;;;;;;22.98;9.80;;;3.70;99.90;;;;;;3596273;39;20050;-67
2021/04/19 02:34:14;;;;;;;17.63;11.00;;;3.70;99.90;;;;;;3602471;39;20048;-67
2021/04/19 02:36:45;;;;;;;18.00;10.65;;;3.80;99.90;;;;;;3606072;39;20047;-67
2021/04/19 02:39:13;;;;;;;16.13;9.90;;;3.80;99.90;;;;;;3600041;39;20146;-67
2021/04/19 02:41:41;;;;;;;16.25;10.35;;;3.80;99.90;;;;;;3604265;39;20108;-67
2021/04/19 02:44:11;;;;;;;21.27;11.13;;;3.80;99.90;;;;;;3603338;39;20032;-67
2021/04/19 02:46:58;;;;;;;17.95;10.68;;;3.80;99.90;;;;;;3603913;39;20401;-67
2021/04/19 02:49:29;;;;;;;19.13;10.57;;;3.80;99.90;;;;;;3602525;39;20555;-67
2021/04/19 02:51:56;;;;;;;24.35;12.20;;;3.80;99.90;;;;;;3604098;39;20616;-66
2021/04/19 02:54:23;;;;;;;19.92;12.32;;;3.90;99.90;;;;;;3605400;39;20038;-67
2021/04/19 02:56:52;;;;;;;21.67;12.63;;;3.80;99.90;;;;;;3603508;39;20036;-68
2021/04/19 02:59:20;;;;;;;20.48;11.88;;;3.80;99.90;;;;;;3600524;39;20332;-67
2021/04/19 03:01:51;;;;;;;27.92;13.10;;;3.80;99.90;;;;;;3604718;39;20626;-67
2021/04/19 03:04:24;;;;;;;23.88;12.73;;;3.90;99.90;;;;;;3601848;39;20036;-67
2021/04/19 03:07:12;;;;;;;20.80;12.35;;;3.90;99.90;;;;;;3602385;39;20480;-67
2021/04/19 03:09:44;;;;;;;21.88;12.70;;;4.00;99.90;;;;;;3602120;39;20036;-67
2021/04/19 03:12:13;;;;;;;22.65;12.85;;;3.90;99.90;;;;;;3599746;39;20767;-67
2021/04/19 03:14:53;;;;;;;21.52;12.90;;;4.00;99.90;;;;;;3604635;39;20062;-67
2021/04/19 03:17:24;;;;;;;24.10;13.00;;;4.00;99.90;;;;;;3605012;39;20043;-67
2021/04/19 03:20:20;;;;;;;22.95;12.73;;;4.00;99.90;;;;;;3603511;39;20377;-66
2021/04/19 03:23:00;;;;;;;23.25;12.88;;;4.10;99.90;;;;;;3602150;39;20047;-67
2021/04/19 03:25:38;;;;;;;24.45;13.88;;;4.10;99.90;;;;;;3603626;39;20044;-67
2021/04/19 03:28:05;;;;;;;27.48;14.82;;;4.00;99.90;;;;;;3601834;39;20050;-67
2021/04/19 03:30:33;;;;;;;33.00;14.55;;;4.00;99.90;;;;;;3603853;39;20026;-67
2021/04/19 03:33:05;;;;;;;23.30;13.75;;;4.00;99.90;;;;;;3604270;39;20050;-68
2021/04/19 03:35:37;;;;;;;281.60;17.88;;;4.00;99.90;;;;;;3606272;39;20043;-68
2021/04/19 03:38:09;;;;;;;127.55;14.25;;;4.10;99.90;;;;;;3606113;39;20083;-69
2021/04/19 03:40:39;;;;;;;28.65;13.43;;;4.20;99.90;;;;;;3599619;39;20043;-68
2021/04/19 03:43:13;;;;;;;25.17;13.60;;;4.20;99.90;;;;;;3601995;39;20064;-68
2021/04/19 03:45:50;;;;;;;481.88;21.23;;;4.10;99.90;;;;;;3601086;39;20047;-71
2021/04/19 03:48:41;;;;;;;22.90;12.80;;;4.20;99.90;;;;;;3602241;39;20091;-67
2021/04/19 03:51:17;;;;;;;25.38;14.45;;;4.10;99.90;;;;;;3600005;39;20131;-67
2021/04/19 03:53:53;;;;;;;22.25;13.23;;;4.00;99.90;;;;;;3606902;39;20067;-67
2021/04/19 03:56:23;;;;;;;24.25;13.65;;;4.00;99.90;;;;;;3605431;39;20035;-67
2021/04/19 03:58:59;;;;;;;35.05;12.40;;;4.10;99.90;;;;;;3604488;39;20911;-68
2021/04/19 04:01:30;;;;;;;49.33;14.57;;;4.10;99.90;;;;;;3607304;39;20250;-67
2021/04/19 04:03:58;;;;;;;25.20;13.38;;;4.10;99.90;;;;;;3604575;39;20136;-67
2021/04/19 04:06:33;;;;;;;84.13;14.82;;;4.10;99.90;;;;;;3601198;39;20031;-67
2021/04/19 04:09:00;;;;;;;154.70;16.70;;;4.20;99.90;;;;;;3597417;39;20039;-67
2021/04/19 04:11:27;;;;;;;27.48;13.63;;;4.10;99.90;;;;;;3604173;39;20056;-67
2021/04/19 04:14:17;;;;;;;29.08;14.70;;;4.10;99.90;;;;;;3602504;39;20050;-66
2021/04/19 04:16:44;;;;;;;29.10;13.82;;;4.20;99.90;;;;;;3601324;39;20035;-67
2021/04/19 04:19:12;;;;;;;83.90;14.05;;;4.10;99.90;;;;;;3596785;39;20468;-67
2021/04/19 04:21:59;;;;;;;22.08;12.55;;;4.10;99.90;;;;;;3603368;39;20032;-67
2021/04/19 04:24:39;;;;;;;21.90;12.20;;;4.00;99.90;;;;;;3603532;39;20047;-67
2021/04/19 04:27:06;;;;;;;24.48;11.93;;;4.00;99.90;;;;;;3600798;39;20705;-67
2021/04/19 04:29:33;;;;;;;21.88;12.15;;;3.90;99.90;;;;;;3602386;39;20408;-66
2021/04/19 04:32:17;;;;;;;26.13;13.80;;;4.00;99.90;;;;;;3602318;39;20033;-68
2021/04/19 04:34:47;;;;;;;28.15;14.18;;;4.10;99.90;;;;;;3604177;39;20039;-67
2021/04/19 04:37:13;;;;;;;30.13;14.45;;;4.00;99.90;;;;;;3598970;39;20044;-67
2021/04/19 04:39:49;;;;;;;24.30;13.07;;;4.00;99.90;;;;;;3598598;39;20132;-67
2021/04/19 04:42:18;;;;;;;25.10;13.30;;;4.00;99.90;;;;;;3602854;39;20362;-67
2021/04/19 04:44:47;;;;;;;35.15;13.57;;;4.10;99.90;;;;;;3601689;39;20028;-67
2021/04/19 04:47:34;;;;;;;22.17;12.00;;;4.20;99.90;;;;;;3603491;39;20031;-67
2021/04/19 04:50:07;;;;;;;28.15;14.75;;;4.30;99.90;;;;;;3602765;39;20099;-67
2021/04/19 04:52:43;;;;;;;47.20;14.55;;;4.30;99.90;;;;;;3601314;39;20696;-68
2021/04/19 04:55:12;;;;;;;23.38;13.43;;;4.30;99.90;;;;;;3603831;39;20043;-66
2021/04/19 04:57:39;;;;;;;32.08;14.32;;;4.30;99.90;;;;;;3602633;39;20136;-67
2021/04/19 05:00:06;;;;;;;42.55;15.23;;;4.50;99.90;;;;;;3600964;39;20856;-67
2021/04/19 05:02:32;;;;;;;26.10;14.70;;;4.70;99.90;;;;;;3600005;39;20053;-67
2021/04/19 05:04:58;;;;;;;33.92;15.32;;;4.60;99.90;;;;;;3604845;39;20120;-67
2021/04/19 05:07:25;;;;;;;26.33;14.35;;;4.60;99.90;;;;;;3600262;39;20730;-67
2021/04/19 05:09:51;;;;;;;33.30;14.55;;;4.80;99.90;;;;;;3599777;39;20124;-66
2021/04/19 05:12:17;;;;;;;51.83;14.95;;;4.80;99.90;;;;;;3599555;39;20039;-67
2021/04/19 05:14:59;;;;;;;202.98;18.40;;;4.80;99.90;;;;;;3605076;39;20031;-67
2021/04/19 05:17:24;;;;;;;24.83;14.07;;;4.80;99.90;;;;;;3601133;39;20038;-67
2021/04/19 05:19:51;;;;;;;26.67;15.43;;;4.80;99.90;;;;;;3601588;39;20043;-67
2021/04/19 05:22:18;;;;;;;29.95;15.68;;;4.80;99.90;;;;;;3603176;39;20623;-67
2021/04/19 05:24:44;;;;;;;165.45;20.52;;;4.90;99.90;;;;;;3602740;39;20032;-67
2021/04/19 05:27:11;;;;;;;28.10;16.27;;;5.10;99.90;;;;;;3602619;39;20054;-68
2021/04/19 05:29:39;;;;;;;29.10;16.25;;;5.20;99.90;;;;;;3602323;39;20313;-67
2021/04/19 05:32:07;;;;;;;84.93;16.70;;;5.30;99.90;;;;;;3604250;39;20028;-67
2021/04/19 05:34:33;;;;;;;83.85;17.02;;;5.50;99.90;;;;;;3601432;39;20466;-68
2021/04/19 05:37:00;;;;;;;71.03;16.77;;;5.60;99.90;;;;;;3604433;39;20048;-67
2021/04/19 05:39:26;;;;;;;37.90;17.23;;;5.70;99.90;;;;;;3607057;39;20032;-67
2021/04/19 05:41:52;;;;;;;58.03;17.83;;;5.70;99.90;;;;;;3602827;39;20023;-68
2021/04/19 05:44:18;;;;;;;36.60;17.65;;;5.80;99.90;;;;;;3604077;39;20043;-68
2021/04/19 05:46:45;;;;;;;37.40;18.80;;;5.80;99.90;;;;;;3603783;39;20047;-67
2021/04/19 05:49:11;;;;;;;31.75;18.02;;;5.60;99.90;;;;;;3605195;39;20087;-68
2021/04/19 05:51:43;;;;;;;33.75;19.15;;;5.60;99.90;;;;;;3602933;39;20427;-67
2021/04/19 05:54:10;;;;;;;162.63;21.13;;;5.70;99.90;;;;;;3604534;39;20039;-67
2021/04/19 05:56:36;;;;;;;166.77;20.95;;;5.90;99.90;;;;;;3600717;39;20051;-68
2021/04/19 05:59:28;;;;;;;92.53;19.67;;;6.10;99.90;;;;;;3602179;39;20108;-67
2021/04/19 06:01:56;;;;;;;28.38;17.17;;;6.30;99.90;;;;;;3606013;39;20451;-67
2021/04/19 06:04:29;;;;;;;126.68;20.85;;;6.30;99.90;;;;;;3602495;39;20391;-68
2021/04/19 06:07:02;;;;;;;29.65;16.95;;;6.30;99.90;;;;;;3602566;39;20098;-68
2021/04/19 06:10:00;;;;;;;32.92;18.95;;;6.40;99.90;;;;;;3601398;39;20048;-67
2021/04/19 06:12:50;;;;;;;27.98;16.42;;;6.40;99.90;;;;;;3600842;39;20059;-67
2021/04/19 06:15:21;;;;;;;26.17;16.63;;;6.40;99.90;;;;;;3605968;39;20765;-67
2021/04/19 06:17:52;;;;;;;119.90;21.13;;;6.50;99.90;;;;;;3603211;39;20047;-67
2021/04/19 06:20:20;;;;;;;280.63;23.83;;;6.50;99.90;;;;;;3602067;39;20738;-67
2021/04/19 06:22:54;;;;;;;87.97;20.55;;;6.50;99.90;;;;;;3600882;39;20038;-67
2021/04/19 06:25:21;;;;;;;403.05;24.08;;;6.50;99.90;;;;;;3600266;39;20746;-67
2021/04/19 06:27:48;;;;;;;84.40;19.90;;;6.50;99.90;;;;;;3605466;39;20039;-68
2021/04/19 06:30:19;;;;;;;38.17;20.85;;;6.40;99.90;;;;;;3604921;39;20046;-69
2021/04/19 06:32:47;;;;;;;162.60;22.55;;;6.40;99.90;;;;;;3602207;39;20039;-67
2021/04/19 06:35:15;;;;;;;169.13;22.77;;;6.60;99.90;;;;;;3605744;39;20032;-67
2021/04/19 06:37:40;;;;;;;80.03;21.38;;;6.80;99.90;;;;;;3600481;39;20032;-66
2021/04/19 06:40:07;;;;;;;83.28;22.02;;;6.70;99.90;;;;;;3605797;39;20035;-67
2021/04/19 06:42:34;;;;;;;47.95;20.08;;;6.80;99.90;;;;;;3603068;39;20037;-67
2021/04/19 06:45:05;;;;;;;34.85;19.88;;;6.70;99.90;;;;;;3601292;39;20038;-68
2021/04/19 06:47:35;;;;;;;35.00;19.75;;;6.70;99.90;;;;;;3603050;39;20043;-67
2021/04/19 06:50:05;;;;;;;226.15;21.55;;;6.70;99.90;;;;;;3603742;39;20042;-67
2021/04/19 06:52:32;;;;;;;34.15;18.92;;;6.90;99.90;;;;;;3601488;39;20072;-67
2021/04/19 06:54:59;;;;;;;45.05;19.10;;;7.00;99.90;;;;;;3606696;39;20051;-67
2021/04/19 06:57:28;;;;;;;31.30;18.33;;;7.10;99.90;;;;;;3602887;39;20044;-68
2021/04/19 06:59:54;;;;;;;101.72;19.77;;;7.10;99.90;;;;;;3603129;39;20346;-67
2021/04/19 07:02:24;;;;;;;129.48;20.27;;;7.10;99.90;;;;;;3605115;39;20146;-67
2021/04/19 07:04:51;;;;;;;38.80;17.45;;;7.30;99.90;;;;;;3603663;39;20092;-67
2021/04/19 07:07:28;;;;;;;33.15;18.08;;;7.40;99.90;;;;;;3605230;39;20050;-67
2021/04/19 07:09:56;;;;;;;52.90;18.05;;;7.40;99.90;;;;;;3602336;39;20031;-67
2021/04/19 07:12:23;;;;;;;33.65;17.65;;;7.50;99.90;;;;;;3602932;39;20034;-67
2021/04/19 07:14:51;;;;;;;58.70;17.38;;;7.50;99.90;;;;;;3603410;39;20051;-68
2021/04/19 07:17:17;;;;;;;36.13;18.38;;;7.60;99.90;;;;;;3602353;39;20052;-67
2021/04/19 07:19:44;;;;;;;28.13;17.85;;;7.60;99.90;;;;;;3602838;39;20566;-67
2021/04/19 07:22:11;;;;;;;39.30;17.58;;;7.60;99.90;;;;;;3602758;39;20042;-67
2021/04/19 07:24:38;;;;;;;31.13;16.73;;;7.60;99.90;;;;;;3604929;39;20514;-67
2021/04/19 07:27:04;;;;;;;35.83;17.33;;;7.60;99.90;;;;;;3605007;39;20039;-67
2021/04/19 07:29:31;;;;;;;30.30;17.48;;;7.60;99.90;;;;;;3607271;39;20042;-67
2021/04/19 07:31:58;;;;;;;34.78;16.00;;;7.60;99.90;;;;;;3601377;39;20716;-67
2021/04/19 07:34:27;;;;;;;30.17;18.50;;;7.60;99.90;;;;;;3602313;39;20031;-68
2021/04/19 07:36:54;;;;;;;40.10;18.05;;;7.80;99.90;;;;;;3604476;39;20027;-67
2021/04/19 07:39:21;;;;;;;27.17;17.85;;;7.90;99.90;;;;;;3601578;39;20049;-67
2021/04/19 07:41:52;;;;;;;26.40;17.48;;;7.90;99.90;;;;;;3601419;39;20123;-67
2021/04/19 07:44:41;;;;;;;47.30;17.70;;;7.90;99.90;;;;;;3602926;39;20032;-67
2021/04/19 07:47:27;;;;;;;31.40;17.08;;;7.90;99.90;;;;;;3598776;39;20120;-67
2021/04/19 07:50:01;;;;;;;29.65;18.00;;;7.90;99.90;;;;;;3603545;39;20028;-67
2021/04/19 07:52:29;;;;;;;32.67;19.17;;;8.00;99.90;;;;;;3602747;39;20035;-68
2021/04/19 07:55:09;;;;;;;31.10;19.48;;;8.10;99.90;;;;;;3603531;39;20058;-68
2021/04/19 07:57:35;;;;;;;32.90;20.23;;;8.10;99.90;;;;;;3605915;39;20039;-67
2021/04/19 08:00:01;;;;;;;30.23;19.48;;;8.20;99.90;;;;;;3603047;39;20027;-68
2021/04/19 08:02:26;;;;;;;29.75;19.25;;;8.30;99.90;;;;;;3607376;39;20039;-67
2021/04/19 08:04:54;;;;;;;33.47;19.15;;;8.30;99.90;;;;;;3604220;39;20172;-67
2021/04/19 08:07:24;;;;;;;29.83;19.10;;;8.40;99.90;;;;;;3606155;39;20309;-67
2021/04/19 08:10:08;;;;;;;28.88;17.60;;;8.40;99.90;;;;;;3602062;39;20505;-67
2021/04/19 08:12:38;;;;;;;29.98;18.48;;;8.40;99.90;;;;;;3603647;39;20035;-68
2021/04/19 08:15:12;;;;;;;33.22;19.60;;;8.50;99.90;;;;;;3602091;39;20032;-68
2021/04/19 08:17:39;;;;;;;30.17;19.92;;;8.40;99.90;;;;;;3603902;39;20039;-67
2021/04/19 08:20:11;;;;;;;28.60;17.88;;;8.50;99.90;;;;;;3604690;39;20306;-67
2021/04/19 08:22:37;;;;;;;29.10;17.75;;;8.60;99.90;;;;;;3603543;39;20032;-67
2021/04/19 08:25:21;;;;;;;30.35;20.65;;;8.80;99.90;;;;;;3604192;39;20033;-67
2021/04/19 08:28:06;;;;;;;27.60;18.55;;;9.10;99.90;;;;;;3602963;39;20078;-67
2021/04/19 08:30:32;;;;;;;29.73;18.02;;;9.10;99.90;;;;;;3603764;39;20063;-68
2021/04/19 08:32:59;;;;;;;28.05;18.50;;;8.90;99.90;;;;;;3604820;39;20093;-68
2021/04/19 08:35:26;;;;;;;30.25;19.27;;;8.90;99.90;;;;;;3603585;39;20028;-69
2021/04/19 08:37:53;;;;;;;29.38;18.73;;;8.90;99.90;;;;;;3605447;39;20039;-67
2021/04/19 08:40:19;;;;;;;33.00;20.58;;;8.90;99.90;;;;;;3604994;39;20040;-67
2021/04/19 08:42:45;;;;;;;29.73;19.30;;;9.00;99.90;;;;;;3602274;39;20028;-67
2021/04/19 08:45:12;;;;;;;32.55;20.33;;;9.10;99.90;;;;;;3605176;39;20055;-68
2021/04/19 08:47:39;;;;;;;28.95;18.77;;;9.20;99.90;;;;;;3603011;39;20039;-67
2021/04/19 08:50:08;;;;;;;32.28;21.05;;;9.20;99.90;;;;;;3603665;39;20572;-68
2021/04/19 08:52:36;;;;;;;35.95;21.85;;;9.20;99.90;;;;;;3603789;39;20066;-68
2021/04/19 08:55:06;;;;;;;84.22;46.03;;;9.20;99.90;;;;;;3604523;39;20046;-68
2021/04/19 08:57:33;;;;;;;103.35;56.35;;;9.10;99.90;;;;;;3600236;39;20179;-68
2021/04/19 08:59:59;;;;;;;58.42;33.42;;;9.10;99.90;;;;;;3600172;39;20629;-67
2021/04/19 09:02:25;;;;;;;42.25;24.27;;;8.90;99.90;;;;;;3605143;39;20057;-67
2021/04/19 09:05:10;;;;;;;49.95;30.38;;;9.00;99.90;;;;;;3600146;39;20432;-67
2021/04/19 09:07:39;;;;;;;34.97;20.98;;;9.20;99.90;;;;;;3601851;39;20431;-67
2021/04/19 09:10:08;;;;;;;35.00;21.15;;;9.20;99.90;;;;;;3601410;39;20193;-68
2021/04/19 09:12:34;;;;;;;33.75;20.77;;;9.20;99.90;;;;;;3604991;39;20123;-68
2021/04/19 09:15:26;;;;;;;34.67;21.67;;;9.10;99.90;;;;;;3602596;39;20055;-68
2021/04/19 09:18:09;;;;;;;36.42;22.30;;;9.10;99.90;;;;;;3601769;39;20031;-68
2021/04/19 09:20:53;;;;;;;32.90;21.15;;;9.20;99.90;;;;;;3601772;39;20140;-67
2021/04/19 09:23:25;;;;;;;41.53;22.50;;;9.10;99.90;;;;;;3599695;39;20043;-67
2021/04/19 09:25:52;;;;;;;41.72;24.02;;;9.20;99.90;;;;;;3604368;39;20046;-67
2021/04/19 09:28:50;;;;;;;64.70;35.85;;;9.30;99.90;;;;;;3592230;39;20051;-69
2021/04/19 09:31:15;;;;;;;41.78;24.52;;;9.20;99.90;;;;;;3599950;39;20039;-67
2021/04/19 09:33:42;;;;;;;40.42;24.13;;;9.20;99.90;;;;;;3602449;39;20453;-67
2021/04/19 09:36:08;;;;;;;44.67;25.63;;;9.20;99.90;;;;;;3604397;39;20495;-68
2021/04/19 09:38:34;;;;;;;40.15;24.00;;;9.30;99.90;;;;;;3603649;39;20098;-67
2021/04/19 09:41:11;;;;;;;39.60;24.13;;;9.40;99.90;;;;;;3601674;39;20038;-67
2021/04/19 09:43:50;;;;;;;39.67;23.85;;;9.30;99.90;;;;;;3602849;39;20042;-68
2021/04/19 09:46:15;;;;;;;46.92;30.02;;;9.10;99.90;;;;;;3601080;39;20058;-67
2021/04/19 09:49:03;;;;;;;51.83;32.90;;;9.20;99.90;;;;;;3602164;39;20653;-68
2021/04/19 09:51:37;;;;;;;45.22;28.70;;;9.30;99.90;;;;;;3600957;39;20054;-67
2021/04/19 09:54:12;;;;;;;53.22;31.10;;;9.20;99.90;;;;;;3600480;39;20397;-67
2021/04/19 09:56:53;;;;;;;51.28;30.27;;;9.20;99.90;;;;;;3602759;39;20032;-67
2021/04/19 09:59:23;;;;;;;48.53;27.92;;;9.20;99.90;;;;;;3600779;39;20046;-67
2021/04/19 10:01:54;;;;;;;52.58;31.17;;;9.10;99.90;;;;;;3603157;39;20050;-67
2021/04/19 10:04:20;;;;;;;52.45;30.50;;;9.10;99.90;;;;;;3602004;39;20043;-67
2021/04/19 10:06:52;;;;;;;54.83;31.98;;;9.10;99.90;;;;;;3607157;39;20031;-67
2021/04/19 10:09:26;;;;;;;59.83;34.15;;;9.20;99.90;;;;;;3603289;39;20043;-67
2021/04/19 10:12:00;;;;;;;54.78;31.98;;;9.20;99.90;;;;;;3603507;39;20079;-69
2021/04/19 10:14:27;;;;;;;52.55;30.05;;;9.20;99.90;;;;;;3603273;39;20028;-67
2021/04/19 10:16:53;;;;;;;51.15;31.13;;;9.10;99.90;;;;;;3601198;39;20028;-68
2021/04/19 10:19:29;;;;;;;55.15;30.63;;;9.20;99.90;;;;;;3605320;39;20044;-68
2021/04/19 10:22:03;;;;;;;55.30;31.00;;;9.30;99.90;;;;;;3599642;39;20056;-68
2021/04/19 10:24:32;;;;;;;54.53;30.50;;;9.30;99.90;;;;;;3606916;39;20122;-68
2021/04/19 10:26:58;;;;;;;58.00;30.98;;;9.30;99.90;;;;;;3608421;39;20042;-68
2021/04/19 10:29:27;;;;;;;52.83;31.15;;;9.40;99.90;;;;;;3608629;39;20035;-69
2021/04/19 10:31:56;;;;;;;54.40;30.88;;;9.30;99.90;;;;;;3603081;39;20552;-68
2021/04/19 10:34:26;;;;;;;55.72;30.00;;;9.40;99.90;;;;;;3603129;39;20032;-68
2021/04/19 10:37:11;;;;;;;45.30;26.85;;;9.40;99.90;;;;;;3604545;39;20050;-68
2021/04/19 10:39:36;;;;;;;50.40;28.23;;;9.50;99.90;;;;;;3604872;39;20056;-68
2021/04/19 10:42:05;;;;;;;50.47;30.35;;;9.60;99.90;;;;;;3604654;39;20199;-68
2021/04/19 10:44:43;;;;;;;48.60;29.08;;;9.60;99.90;;;;;;3604609;39;20795;-68
2021/04/19 10:47:11;;;;;;;52.10;30.55;;;9.70;99.90;;;;;;3602641;39;20042;-68
2021/04/19 10:49:38;;;;;;;40.13;25.13;;;9.90;99.90;;;;;;3604505;39;20451;-67
2021/04/19 10:52:06;;;;;;;43.17;25.83;;;10.00;99.90;;;;;;3603363;39;20424;-67
2021/04/19 10:54:38;;;;;;;42.70;26.85;;;10.10;99.90;;;;;;3607258;39;20031;-68
2021/04/19 10:57:06;;;;;;;49.05;27.20;;;10.10;99.90;;;;;;3601651;39;20036;-68
2021/04/19 10:59:33;;;;;;;47.90;27.98;;;10.10;99.90;;;;;;3605246;39;20050;-68
2021/04/19 11:02:07;;;;;;;44.78;27.30;;;10.00;99.90;;;;;;3601144;39;20622;-68
2021/04/19 11:04:35;;;;;;;46.70;27.40;;;10.00;99.90;;;;;;3607108;39;20132;-68
2021/04/19 11:07:26;;;;;;;45.33;26.40;;;10.00;99.90;;;;;;3606464;39;20039;-68
2021/04/19 11:10:16;;;;;;;50.17;28.60;;;10.10;99.90;;;;;;3604784;39;20039;-68
2021/04/19 11:13:04;;;;;;;43.95;27.10;;;10.00;99.90;;;;;;3602076;39;20062;-68
2021/04/19 11:15:38;;;;;;;70.63;36.85;;;10.00;99.90;;;;;;3604115;39;20072;-68
2021/04/19 11:18:23;;;;;;;41.72;26.58;;;10.00;99.90;;;;;;3604081;39;20043;-68
2021/04/19 11:20:51;;;;;;;44.88;26.80;;;9.90;99.90;;;;;;3602483;39;20027;-68
2021/04/19 11:23:25;;;;;;;47.15;26.45;;;9.80;99.90;;;;;;3604217;39;20707;-68
2021/04/19 11:25:53;;;;;;;47.70;28.08;;;9.80;99.90;;;;;;3601370;39;20397;-68
2021/04/19 11:28:20;;;;;;;46.55;27.85;;;9.90;99.90;;;;;;3606007;39;20047;-68
2021/04/19 11:30:47;;;;;;;44.40;27.92;;;9.80;99.90;;;;;;3603787;39;20432;-68
2021/04/19 11:33:22;;;;;;;48.25;29.70;;;10.00;99.90;;;;;;3604258;39;20421;-68
2021/04/19 11:35:51;;;;;;;48.50;29.33;;;10.10;99.90;;;;;;3604273;39;20865;-69
2021/04/19 11:38:22;;;;;;;43.35;26.67;;;10.30;99.90;;;;;;3605144;39;20102;-68
2021/04/19 11:40:50;;;;;;;40.10;24.55;;;10.40;99.90;;;;;;3602648;39;20039;-69
2021/04/19 11:43:25;;;;;;;41.10;25.55;;;10.70;99.90;;;;;;3603377;39;20043;-71
2021/04/19 11:46:18;;;;;;;33.72;21.55;;;11.00;99.90;;;;;;3603596;39;20032;-68
2021/04/19 11:48:46;;;;;;;35.33;22.98;;;11.20;99.90;;;;;;3602923;39;20121;-68
2021/04/19 11:51:15;;;;;;;34.00;21.05;;;11.40;99.90;;;;;;3601602;39;20421;-68
2021/04/19 11:53:43;;;;;;;33.60;20.73;;;11.50;99.90;;;;;;3602663;39;20059;-68
2021/04/19 11:56:11;;;;;;;32.15;20.50;;;11.50;99.90;;;;;;3608778;39;20081;-68
2021/04/19 11:58:41;;;;;;;35.95;22.60;;;11.60;99.90;;;;;;3603409;39;20041;-68
2021/04/19 12:01:07;;;;;;;30.55;19.92;;;12.00;99.90;;;;;;3601750;39;20048;-68
2021/04/19 12:03:33;;;;;;;28.00;18.80;;;12.40;99.90;;;;;;3606509;39;20039;-68
2021/04/19 12:06:00;;;;;;;31.42;19.17;;;13.00;99.90;;;;;;3603481;39;20065;-68
2021/04/19 12:08:26;;;;;;;28.30;18.00;;;13.50;99.90;;;;;;3605362;39;20102;-68
2021/04/19 12:10:52;;;;;;;25.90;18.13;;;13.70;99.90;;;;;;3603095;39;20080;-68
2021/04/19 12:13:18;;;;;;;27.30;17.80;;;13.90;99.90;;;;;;3603025;39;20046;-68
2021/04/19 12:15:48;;;;;;;24.75;16.55;;;14.00;99.90;;;;;;3602203;39;20075;-68
2021/04/19 12:18:14;;;;;;;28.88;18.52;;;14.10;99.90;;;;;;3603626;39;20095;-68
2021/04/19 12:20:40;;;;;;;28.88;19.60;;;13.60;99.90;;;;;;3601913;39;20047;-68
2021/04/19 12:23:08;;;;;;;29.75;19.60;;;13.70;99.90;;;;;;3606955;39;20618;-68
2021/04/19 12:25:34;;;;;;;24.80;17.20;;;14.40;99.90;;;;;;3603341;39;20076;-68
2021/04/19 12:28:00;;;;;;;27.17;17.67;;;14.80;99.90;;;;;;3604869;39;20047;-68
2021/04/19 12:30:27;;;;;;;25.05;16.98;;;15.20;99.90;;;;;;3601088;39;20035;-68
2021/04/19 12:32:53;;;;;;;24.15;17.08;;;15.60;99.90;;;;;;3600080;39;20036;-68
2021/04/19 12:35:20;;;;;;;24.73;16.20;;;15.50;99.90;;;;;;3604899;39;20039;-68
2021/04/19 12:37:47;;;;;;;26.75;16.48;;;15.70;99.90;;;;;;3602478;39;20039;-68
2021/04/19 12:40:13;;;;;;;24.67;16.25;;;15.80;99.90;;;;;;3602337;39;20027;-68
2021/04/19 12:42:39;;;;;;;29.10;16.52;;;15.60;99.90;;;;;;3601508;39;20151;-68
2021/04/19 12:45:06;;;;;;;24.77;17.85;;;15.70;99.90;;;;;;3602845;39;20043;-68
2021/04/19 12:47:31;;;;;;;27.08;17.92;;;15.90;99.90;;;;;;3603488;39;20758;-68
2021/04/19 12:49:57;;;;;;;22.02;15.73;;;16.30;99.90;;;;;;3605572;39;20046;-68
2021/04/19 12:52:23;;;;;;;22.58;16.35;;;16.50;99.90;;;;;;3607849;39;20137;-68
2021/04/19 12:55:08;;;;;;;20.58;15.10;;;16.60;99.90;;;;;;3598990;39;20133;-68